Glendale/Luke AFB, Arizona
Current Conditions -  °F | °C
As of 4:58 AM on Friday 31 Oct 2014 (Local Time) from KLUF Reporting Station
Clear Clear  
Wind Chill: 64°   Ceiling: Unl
Heat Index: 64°   Visibility: 10mi
Dew Point: 43°   Wind: 2mph
Humidity: 47%   Direction: 20°NNE
Pressure: 29.89"   Gusts: NA
Location:  33.53°N, 112.38°W
Report Text: KLUF 311158Z AUTO 02002KT 10SM CLR 18/06 A2989 RMK AO2 SLP112 T01770063 10204 20177 58000 $
Loading
Personal Weather Stations






























Interactive Weather Map
Tropical Storm Tracking
New forecast layout! Learn more

10-Day Weather Forecast

Advertisements
Track Severe Weather on mobile